Camanducaia, Brazil
Current Conditions -  °F | °C
As of 6:00 AM on Friday 19 Dec 2014 (Local Time) from SBSJ Reporting Station
Broken Clouds Broken Clouds  
Wind Chill: 73°   Ceiling: 1300
Heat Index: 73°   Visibility: 5mi
Dew Point: 66°   Wind: 2mph
Humidity: 78%   Direction: 350°N
Pressure: 29.88"   Gusts: NA
Location:  22.76°S, 46.14°W
Report Text: SBSJ 190800Z 35002KT 8000 BKN013 23/19 Q1012
Loading
Personal Weather Stations






























Interactive Weather Map New forecast layout! Learn more

10-Day Weather Forecast

Advertisements
Track Severe Weather on mobile